KPHP

Details ICAO KPHP
Name PHILIP
Region United States
Timezone America/Denver (UTC-7.0)
Plans Departing 0
Arriving 0
Stats Elevation 2,207 ft / 673 m (AMSL)
Location 44.048664° -101.599020°
Runways 2
Magnetic Variation 6.492° E
Sunrise 2017-12-15 14:15:59 UTC / 2017-12-15 07:15:59 Local
Sunset 2017-12-15 23:10:10 UTC / 2017-12-15 16:10:10 Local
Advertisement - Login to hide

Runways

ID Width Length Bearing (true) Bearing (mag) Surface Threshold Offset Overrun Length
05 150 ft / 46 m 3,593 ft / 1,095 m 63.16° 56.67° Grass 0 ft / 0 m 0 ft / 0 m
12 75 ft / 23 m 3,995 ft / 1,218 m 128.28° 121.79° Asphalt 0 ft / 0 m 0 ft / 0 m
23 150 ft / 46 m 3,593 ft / 1,095 m 243.16° 236.67° Grass 0 ft / 0 m 0 ft / 0 m
30 75 ft / 23 m 3,995 ft / 1,218 m 308.28° 301.79° Asphalt 0 ft / 0 m 0 ft / 0 m

Map

Weather


0- 5 10 15 20 25 30 35+ Temperature / ° C

Clouds and Precipitation
Forecast for 2017-12-15 18:00 UTC. Updated an hour ago

Ground ~20,000 ft ~40,000 ft Winds

METAR

KPHP 151555Z AUTO 27012KT 10SM CLR M02/M06 A2984 RMK AO2 SLP123 T10171056

TAF

Not found

Frequencies

Recorded 118.37 MHz ASOS
Unicom 122.80 MHz CTAF/UNICOM
Warning: Do not use this data for real-world aviation or navigation. No guarantee of current accuracy is given.